sensor_id;sensor_type;location;lat;lon;timestamp;P1;durP1;ratioP1;P2;durP2;ratioP2
28848;SDS011;15981;43.292;-2.888;2023-02-28T00:00:31;6.78;;;4.13;;
28848;SDS011;15981;43.292;-2.888;2023-02-28T00:02:57;5.10;;;3.30;;
28848;SDS011;15981;43.292;-2.888;2023-02-28T00:05:23;5.68;;;4.15;;
28848;SDS011;15981;43.292;-2.888;2023-02-28T00:07:50;6.85;;;3.88;;
28848;SDS011;15981;43.292;-2.888;2023-02-28T00:10:17;6.32;;;3.83;;
28848;SDS011;15981;43.292;-2.888;2023-02-28T00:12:52;5.95;;;4.10;;
28848;SDS011;15981;43.292;-2.888;2023-02-28T00:15:19;5.03;;;3.60;;
28848;SDS011;15981;43.292;-2.888;2023-02-28T00:17:45;6.47;;;4.00;;
28848;SDS011;15981;43.292;-2.888;2023-02-28T00:20:11;5.65;;;3.78;;
28848;SDS011;15981;43.292;-2.888;2023-02-28T00:22:39;7.57;;;4.20;;
28848;SDS011;15981;43.292;-2.888;2023-02-28T00:25:06;7.53;;;4.82;;
28848;SDS011;15981;43.292;-2.888;2023-02-28T00:27:32;5.70;;;3.97;;
28848;SDS011;15981;43.292;-2.888;2023-02-28T00:29:58;5.07;;;3.67;;
28848;SDS011;15981;43.292;-2.888;2023-02-28T00:32:24;10.05;;;4.40;;
28848;SDS011;15981;43.292;-2.888;2023-02-28T00:34:50;7.30;;;4.55;;
28848;SDS011;15981;43.292;-2.888;2023-02-28T00:37:15;6.38;;;4.20;;
28848;SDS011;15981;43.292;-2.888;2023-02-28T00:39:41;5.60;;;4.30;;
28848;SDS011;15981;43.292;-2.888;2023-02-28T00:42:07;5.75;;;3.85;;
28848;SDS011;15981;43.292;-2.888;2023-02-28T00:44:33;6.28;;;4.60;;
28848;SDS011;15981;43.292;-2.888;2023-02-28T00:46:59;6.50;;;4.50;;
28848;SDS011;15981;43.292;-2.888;2023-02-28T00:49:25;6.93;;;4.20;;
28848;SDS011;15981;43.292;-2.888;2023-02-28T00:51:51;5.43;;;3.60;;
28848;SDS011;15981;43.292;-2.888;2023-02-28T00:54:17;7.82;;;4.70;;
28848;SDS011;15981;43.292;-2.888;2023-02-28T00:56:43;5.85;;;4.35;;
28848;SDS011;15981;43.292;-2.888;2023-02-28T00:59:09;5.68;;;4.18;;
28848;SDS011;15981;43.292;-2.888;2023-02-28T01:01:34;7.10;;;4.13;;
28848;SDS011;15981;43.292;-2.888;2023-02-28T01:04:00;6.00;;;4.10;;
28848;SDS011;15981;43.292;-2.888;2023-02-28T01:06:26;6.25;;;4.82;;
28848;SDS011;15981;43.292;-2.888;2023-02-28T01:08:52;6.68;;;4.50;;
28848;SDS011;15981;43.292;-2.888;2023-02-28T01:11:17;6.93;;;3.78;;
28848;SDS011;15981;43.292;-2.888;2023-02-28T01:13:44;6.13;;;4.28;;
28848;SDS011;15981;43.292;-2.888;2023-02-28T01:16:10;6.20;;;4.30;;
28848;SDS011;15981;43.292;-2.888;2023-02-28T01:18:36;6.95;;;4.90;;
28848;SDS011;15981;43.292;-2.888;2023-02-28T01:21:03;7.47;;;4.80;;
28848;SDS011;15981;43.292;-2.888;2023-02-28T01:23:29;5.82;;;4.28;;
28848;SDS011;15981;43.292;-2.888;2023-02-28T01:25:55;6.88;;;4.53;;
28848;SDS011;15981;43.292;-2.888;2023-02-28T01:28:21;6.32;;;4.43;;
28848;SDS011;15981;43.292;-2.888;2023-02-28T01:30:47;7.80;;;4.75;;
28848;SDS011;15981;43.292;-2.888;2023-02-28T01:33:13;6.10;;;4.07;;
28848;SDS011;15981;43.292;-2.888;2023-02-28T01:35:39;6.47;;;4.45;;
28848;SDS011;15981;43.292;-2.888;2023-02-28T01:38:04;7.28;;;4.45;;
28848;SDS011;15981;43.292;-2.888;2023-02-28T01:40:30;6.93;;;4.43;;
28848;SDS011;15981;43.292;-2.888;2023-02-28T01:42:56;6.25;;;4.20;;
28848;SDS011;15981;43.292;-2.888;2023-02-28T01:47:48;6.97;;;4.65;;
28848;SDS011;15981;43.292;-2.888;2023-02-28T01:50:16;5.65;;;4.10;;
28848;SDS011;15981;43.292;-2.888;2023-02-28T01:52:43;6.40;;;4.43;;
28848;SDS011;15981;43.292;-2.888;2023-02-28T01:55:09;7.93;;;4.43;;
28848;SDS011;15981;43.292;-2.888;2023-02-28T01:57:46;6.97;;;4.85;;
28848;SDS011;15981;43.292;-2.888;2023-02-28T02:00:15;4.72;;;3.85;;
28848;SDS011;15981;43.292;-2.888;2023-02-28T02:02:42;5.88;;;4.57;;
28848;SDS011;15981;43.292;-2.888;2023-02-28T02:05:10;7.35;;;4.95;;
28848;SDS011;15981;43.292;-2.888;2023-02-28T02:07:37;6.53;;;4.93;;
28848;SDS011;15981;43.292;-2.888;2023-02-28T02:10:14;7.82;;;4.63;;
28848;SDS011;15981;43.292;-2.888;2023-02-28T02:26:09;5.60;;;4.28;;
28848;SDS011;15981;43.292;-2.888;2023-02-28T02:31:29;7.13;;;4.90;;
28848;SDS011;15981;43.292;-2.888;2023-02-28T02:36:27;5.40;;;4.30;;
28848;SDS011;15981;43.292;-2.888;2023-02-28T02:39:27;5.88;;;4.60;;
28848;SDS011;15981;43.292;-2.888;2023-02-28T02:41:46;7.38;;;4.57;;
28848;SDS011;15981;43.292;-2.888;2023-02-28T02:44:19;7.60;;;4.90;;
28848;SDS011;15981;43.292;-2.888;2023-02-28T02:46:47;6.07;;;4.07;;
28848;SDS011;15981;43.292;-2.888;2023-02-28T02:49:21;6.57;;;4.30;;
28848;SDS011;15981;43.292;-2.888;2023-02-28T02:51:47;7.32;;;4.72;;
28848;SDS011;15981;43.292;-2.888;2023-02-28T02:54:20;6.57;;;4.50;;
28848;SDS011;15981;43.292;-2.888;2023-02-28T02:56:48;5.28;;;4.03;;
28848;SDS011;15981;43.292;-2.888;2023-02-28T02:59:16;6.75;;;4.60;;
28848;SDS011;15981;43.292;-2.888;2023-02-28T03:01:48;6.40;;;4.13;;
28848;SDS011;15981;43.292;-2.888;2023-02-28T03:04:19;5.63;;;3.95;;
28848;SDS011;15981;43.292;-2.888;2023-02-28T03:06:45;8.98;;;4.55;;
28848;SDS011;15981;43.292;-2.888;2023-02-28T03:09:11;7.55;;;4.65;;
28848;SDS011;15981;43.292;-2.888;2023-02-28T03:11:37;6.68;;;4.35;;
28848;SDS011;15981;43.292;-2.888;2023-02-28T03:26:42;8.20;;;4.95;;
28848;SDS011;15981;43.292;-2.888;2023-02-28T03:29:28;7.45;;;4.70;;
28848;SDS011;15981;43.292;-2.888;2023-02-28T03:32:00;5.68;;;4.07;;
28848;SDS011;15981;43.292;-2.888;2023-02-28T03:34:33;6.10;;;4.18;;
28848;SDS011;15981;43.292;-2.888;2023-02-28T03:37:02;6.60;;;4.28;;
28848;SDS011;15981;43.292;-2.888;2023-02-28T03:39:34;7.03;;;4.68;;
28848;SDS011;15981;43.292;-2.888;2023-02-28T03:42:05;6.40;;;4.10;;
28848;SDS011;15981;43.292;-2.888;2023-02-28T03:44:33;5.32;;;4.03;;
28848;SDS011;15981;43.292;-2.888;2023-02-28T03:47:02;5.95;;;3.97;;
28848;SDS011;15981;43.292;-2.888;2023-02-28T03:49:31;5.25;;;3.80;;
28848;SDS011;15981;43.292;-2.888;2023-02-28T03:51:58;4.70;;;3.75;;
28848;SDS011;15981;43.292;-2.888;2023-02-28T03:54:28;5.60;;;3.92;;
28848;SDS011;15981;43.292;-2.888;2023-02-28T03:56:57;6.55;;;4.68;;
28848;SDS011;15981;43.292;-2.888;2023-02-28T03:59:30;4.95;;;3.70;;
28848;SDS011;15981;43.292;-2.888;2023-02-28T04:01:58;6.82;;;4.20;;
28848;SDS011;15981;43.292;-2.888;2023-02-28T04:04:24;5.90;;;4.32;;
28848;SDS011;15981;43.292;-2.888;2023-02-28T04:06:51;6.05;;;3.70;;
28848;SDS011;15981;43.292;-2.888;2023-02-28T04:09:17;5.63;;;3.97;;
28848;SDS011;15981;43.292;-2.888;2023-02-28T04:11:48;5.70;;;4.25;;
28848;SDS011;15981;43.292;-2.888;2023-02-28T04:14:17;5.53;;;3.92;;
28848;SDS011;15981;43.292;-2.888;2023-02-28T04:16:42;6.22;;;4.30;;
28848;SDS011;15981;43.292;-2.888;2023-02-28T04:19:09;6.20;;;4.05;;
28848;SDS011;15981;43.292;-2.888;2023-02-28T04:21:36;5.57;;;4.32;;
28848;SDS011;15981;43.292;-2.888;2023-02-28T04:24:02;5.45;;;3.72;;
28848;SDS011;15981;43.292;-2.888;2023-02-28T04:26:28;5.00;;;4.43;;
28848;SDS011;15981;43.292;-2.888;2023-02-28T04:28:55;5.97;;;4.10;;
28848;SDS011;15981;43.292;-2.888;2023-02-28T04:31:21;4.63;;;3.70;;
28848;SDS011;15981;43.292;-2.888;2023-02-28T04:33:47;4.18;;;3.65;;
28848;SDS011;15981;43.292;-2.888;2023-02-28T04:36:13;6.28;;;4.07;;
28848;SDS011;15981;43.292;-2.888;2023-02-28T04:38:40;5.35;;;3.85;;
28848;SDS011;15981;43.292;-2.888;2023-02-28T04:41:05;5.82;;;3.97;;
28848;SDS011;15981;43.292;-2.888;2023-02-28T04:43:31;5.07;;;3.90;;
28848;SDS011;15981;43.292;-2.888;2023-02-28T04:45:58;5.45;;;3.67;;
28848;SDS011;15981;43.292;-2.888;2023-02-28T04:48:30;5.25;;;3.47;;
28848;SDS011;15981;43.292;-2.888;2023-02-28T04:50:59;6.85;;;4.10;;
28848;SDS011;15981;43.292;-2.888;2023-02-28T04:53:25;5.80;;;3.70;;
28848;SDS011;15981;43.292;-2.888;2023-02-28T04:55:51;5.35;;;3.88;;
28848;SDS011;15981;43.292;-2.888;2023-02-28T04:58:16;4.32;;;3.35;;
28848;SDS011;15981;43.292;-2.888;2023-02-28T05:00:42;6.43;;;4.05;;
28848;SDS011;15981;43.292;-2.888;2023-02-28T05:03:08;4.50;;;3.53;;
28848;SDS011;15981;43.292;-2.888;2023-02-28T05:05:35;6.32;;;3.70;;
28848;SDS011;15981;43.292;-2.888;2023-02-28T05:08:00;4.80;;;3.80;;
28848;SDS011;15981;43.292;-2.888;2023-02-28T05:10:26;4.55;;;3.45;;
28848;SDS011;15981;43.292;-2.888;2023-02-28T05:12:52;6.50;;;3.60;;
28848;SDS011;15981;43.292;-2.888;2023-02-28T05:15:18;5.25;;;3.40;;
28848;SDS011;15981;43.292;-2.888;2023-02-28T05:17:43;6.00;;;3.50;;
28848;SDS011;15981;43.292;-2.888;2023-02-28T05:20:09;4.88;;;3.60;;
28848;SDS011;15981;43.292;-2.888;2023-02-28T05:22:42;4.93;;;3.15;;
28848;SDS011;15981;43.292;-2.888;2023-02-28T05:25:12;6.03;;;3.47;;
28848;SDS011;15981;43.292;-2.888;2023-02-28T05:27:38;4.60;;;3.40;;
28848;SDS011;15981;43.292;-2.888;2023-02-28T05:30:05;5.57;;;3.80;;
28848;SDS011;15981;43.292;-2.888;2023-02-28T05:32:31;5.35;;;3.33;;
28848;SDS011;15981;43.292;-2.888;2023-02-28T05:34:57;5.20;;;3.33;;
28848;SDS011;15981;43.292;-2.888;2023-02-28T05:37:22;5.38;;;3.67;;
28848;SDS011;15981;43.292;-2.888;2023-02-28T05:39:48;5.38;;;3.50;;
28848;SDS011;15981;43.292;-2.888;2023-02-28T05:42:14;5.30;;;3.42;;
28848;SDS011;15981;43.292;-2.888;2023-02-28T05:44:40;6.10;;;3.63;;
28848;SDS011;15981;43.292;-2.888;2023-02-28T05:47:05;5.63;;;3.53;;
28848;SDS011;15981;43.292;-2.888;2023-02-28T05:49:31;5.50;;;3.70;;
28848;SDS011;15981;43.292;-2.888;2023-02-28T05:51:57;5.35;;;3.58;;
28848;SDS011;15981;43.292;-2.888;2023-02-28T05:54:22;7.25;;;3.25;;
28848;SDS011;15981;43.292;-2.888;2023-02-28T05:56:48;5.65;;;4.05;;
28848;SDS011;15981;43.292;-2.888;2023-02-28T05:59:14;5.68;;;3.63;;
28848;SDS011;15981;43.292;-2.888;2023-02-28T06:01:41;5.32;;;3.55;;
28848;SDS011;15981;43.292;-2.888;2023-02-28T06:04:09;5.20;;;3.40;;
28848;SDS011;15981;43.292;-2.888;2023-02-28T06:06:35;5.57;;;3.50;;
28848;SDS011;15981;43.292;-2.888;2023-02-28T06:09:03;6.15;;;3.90;;
28848;SDS011;15981;43.292;-2.888;2023-02-28T06:11:28;5.18;;;3.80;;
28848;SDS011;15981;43.292;-2.888;2023-02-28T06:13:55;4.20;;;3.47;;
28848;SDS011;15981;43.292;-2.888;2023-02-28T06:16:21;6.20;;;3.83;;
28848;SDS011;15981;43.292;-2.888;2023-02-28T06:18:47;5.95;;;3.50;;
28848;SDS011;15981;43.292;-2.888;2023-02-28T06:21:13;5.10;;;3.53;;
28848;SDS011;15981;43.292;-2.888;2023-02-28T06:23:39;4.65;;;3.72;;
28848;SDS011;15981;43.292;-2.888;2023-02-28T06:26:05;5.68;;;3.88;;
28848;SDS011;15981;43.292;-2.888;2023-02-28T06:28:31;4.55;;;3.15;;
28848;SDS011;15981;43.292;-2.888;2023-02-28T06:30:57;4.40;;;3.42;;
28848;SDS011;15981;43.292;-2.888;2023-02-28T06:33:23;5.45;;;3.55;;
28848;SDS011;15981;43.292;-2.888;2023-02-28T06:35:51;5.47;;;3.50;;
28848;SDS011;15981;43.292;-2.888;2023-02-28T06:38:17;4.82;;;3.47;;
28848;SDS011;15981;43.292;-2.888;2023-02-28T06:40:43;5.07;;;3.20;;
28848;SDS011;15981;43.292;-2.888;2023-02-28T06:43:09;5.63;;;3.30;;
28848;SDS011;15981;43.292;-2.888;2023-02-28T06:45:42;4.47;;;3.17;;
28848;SDS011;15981;43.292;-2.888;2023-02-28T06:48:08;4.70;;;3.58;;
28848;SDS011;15981;43.292;-2.888;2023-02-28T06:50:34;5.45;;;3.30;;
28848;SDS011;15981;43.292;-2.888;2023-02-28T06:53:00;6.32;;;3.50;;
28848;SDS011;15981;43.292;-2.888;2023-02-28T06:55:26;5.60;;;3.70;;
28848;SDS011;15981;43.292;-2.888;2023-02-28T06:57:51;4.90;;;3.42;;
28848;SDS011;15981;43.292;-2.888;2023-02-28T07:00:17;4.88;;;3.13;;
28848;SDS011;15981;43.292;-2.888;2023-02-28T07:02:43;5.25;;;3.30;;
28848;SDS011;15981;43.292;-2.888;2023-02-28T07:05:08;5.60;;;3.65;;
28848;SDS011;15981;43.292;-2.888;2023-02-28T07:07:34;5.40;;;3.92;;
28848;SDS011;15981;43.292;-2.888;2023-02-28T07:10:01;6.35;;;3.60;;
28848;SDS011;15981;43.292;-2.888;2023-02-28T07:12:27;5.88;;;3.38;;
28848;SDS011;15981;43.292;-2.888;2023-02-28T07:14:53;5.20;;;3.28;;
28848;SDS011;15981;43.292;-2.888;2023-02-28T07:17:21;5.80;;;3.60;;
28848;SDS011;15981;43.292;-2.888;2023-02-28T07:19:46;5.15;;;3.80;;
28848;SDS011;15981;43.292;-2.888;2023-02-28T07:22:12;6.38;;;4.43;;
28848;SDS011;15981;43.292;-2.888;2023-02-28T07:24:38;5.05;;;3.70;;
28848;SDS011;15981;43.292;-2.888;2023-02-28T07:27:04;5.65;;;3.40;;
28848;SDS011;15981;43.292;-2.888;2023-02-28T07:29:29;5.75;;;3.40;;
28848;SDS011;15981;43.292;-2.888;2023-02-28T07:31:55;5.88;;;3.63;;
28848;SDS011;15981;43.292;-2.888;2023-02-28T07:34:22;5.10;;;3.75;;
28848;SDS011;15981;43.292;-2.888;2023-02-28T07:36:47;3.50;;;3.00;;
28848;SDS011;15981;43.292;-2.888;2023-02-28T07:39:13;6.28;;;4.13;;
28848;SDS011;15981;43.292;-2.888;2023-02-28T07:41:39;4.72;;;3.55;;
28848;SDS011;15981;43.292;-2.888;2023-02-28T07:44:11;5.10;;;3.80;;
28848;SDS011;15981;43.292;-2.888;2023-02-28T07:46:37;7.32;;;3.63;;
28848;SDS011;15981;43.292;-2.888;2023-02-28T07:49:03;5.00;;;3.40;;
28848;SDS011;15981;43.292;-2.888;2023-02-28T07:51:30;5.30;;;3.92;;
28848;SDS011;15981;43.292;-2.888;2023-02-28T07:53:56;7.03;;;3.55;;
28848;SDS011;15981;43.292;-2.888;2023-02-28T07:56:21;4.70;;;3.78;;
28848;SDS011;15981;43.292;-2.888;2023-02-28T07:58:47;7.13;;;3.80;;
28848;SDS011;15981;43.292;-2.888;2023-02-28T08:01:13;4.80;;;3.65;;
28848;SDS011;15981;43.292;-2.888;2023-02-28T08:03:39;6.13;;;3.67;;
28848;SDS011;15981;43.292;-2.888;2023-02-28T08:06:05;6.90;;;3.75;;
28848;SDS011;15981;43.292;-2.888;2023-02-28T08:08:31;5.10;;;3.60;;
28848;SDS011;15981;43.292;-2.888;2023-02-28T08:11:01;5.78;;;3.42;;
28848;SDS011;15981;43.292;-2.888;2023-02-28T08:13:27;5.55;;;3.90;;
28848;SDS011;15981;43.292;-2.888;2023-02-28T08:15:53;7.32;;;4.43;;
28848;SDS011;15981;43.292;-2.888;2023-02-28T08:18:20;6.22;;;4.47;;
28848;SDS011;15981;43.292;-2.888;2023-02-28T08:20:46;9.48;;;5.18;;
28848;SDS011;15981;43.292;-2.888;2023-02-28T08:23:12;9.35;;;5.05;;
28848;SDS011;15981;43.292;-2.888;2023-02-28T08:25:37;11.88;;;6.18;;
28848;SDS011;15981;43.292;-2.888;2023-02-28T08:28:03;13.57;;;6.28;;
28848;SDS011;15981;43.292;-2.888;2023-02-28T08:30:29;12.95;;;7.10;;
28848;SDS011;15981;43.292;-2.888;2023-02-28T08:32:55;13.45;;;6.45;;
28848;SDS011;15981;43.292;-2.888;2023-02-28T08:35:21;10.32;;;6.07;;
28848;SDS011;15981;43.292;-2.888;2023-02-28T08:37:50;21.95;;;10.68;;
28848;SDS011;15981;43.292;-2.888;2023-02-28T08:40:16;15.43;;;9.90;;
28848;SDS011;15981;43.292;-2.888;2023-02-28T08:42:44;13.15;;;8.85;;
28848;SDS011;15981;43.292;-2.888;2023-02-28T08:45:10;13.65;;;7.28;;
28848;SDS011;15981;43.292;-2.888;2023-02-28T08:47:36;13.02;;;6.28;;
28848;SDS011;15981;43.292;-2.888;2023-02-28T08:50:02;9.27;;;5.53;;
28848;SDS011;15981;43.292;-2.888;2023-02-28T08:52:27;7.97;;;4.28;;
28848;SDS011;15981;43.292;-2.888;2023-02-28T08:54:53;7.15;;;4.68;;
28848;SDS011;15981;43.292;-2.888;2023-02-28T08:57:19;7.18;;;4.43;;
28848;SDS011;15981;43.292;-2.888;2023-02-28T08:59:45;8.68;;;4.57;;
28848;SDS011;15981;43.292;-2.888;2023-02-28T09:02:13;7.63;;;4.80;;
28848;SDS011;15981;43.292;-2.888;2023-02-28T09:04:40;6.15;;;4.10;;
28848;SDS011;15981;43.292;-2.888;2023-02-28T09:07:05;6.75;;;4.25;;
28848;SDS011;15981;43.292;-2.888;2023-02-28T09:09:31;6.22;;;3.80;;
28848;SDS011;15981;43.292;-2.888;2023-02-28T09:11:57;7.78;;;3.67;;
28848;SDS011;15981;43.292;-2.888;2023-02-28T09:14:23;9.40;;;4.35;;
28848;SDS011;15981;43.292;-2.888;2023-02-28T09:16:49;6.15;;;3.28;;
28848;SDS011;15981;43.292;-2.888;2023-02-28T09:19:14;5.25;;;3.13;;
28848;SDS011;15981;43.292;-2.888;2023-02-28T09:21:40;5.93;;;3.72;;
28848;SDS011;15981;43.292;-2.888;2023-02-28T09:24:06;4.53;;;3.08;;
28848;SDS011;15981;43.292;-2.888;2023-02-28T09:26:32;4.05;;;2.88;;
28848;SDS011;15981;43.292;-2.888;2023-02-28T09:28:57;4.72;;;2.85;;
28848;SDS011;15981;43.292;-2.888;2023-02-28T09:31:27;4.22;;;2.22;;
28848;SDS011;15981;43.292;-2.888;2023-02-28T09:33:54;5.88;;;2.85;;
28848;SDS011;15981;43.292;-2.888;2023-02-28T09:36:20;3.38;;;2.30;;
28848;SDS011;15981;43.292;-2.888;2023-02-28T09:38:47;4.05;;;2.55;;
28848;SDS011;15981;43.292;-2.888;2023-02-28T09:41:14;3.90;;;2.35;;
28848;SDS011;15981;43.292;-2.888;2023-02-28T09:43:41;4.35;;;2.60;;
28848;SDS011;15981;43.292;-2.888;2023-02-28T09:48:49;5.60;;;2.83;;
28848;SDS011;15981;43.292;-2.888;2023-02-28T09:53:50;6.97;;;3.40;;
28848;SDS011;15981;43.292;-2.888;2023-02-28T09:56:24;8.25;;;3.63;;
28848;SDS011;15981;43.292;-2.888;2023-02-28T10:04:05;4.95;;;3.05;;
28848;SDS011;15981;43.292;-2.888;2023-02-28T10:06:36;3.38;;;2.33;;
28848;SDS011;15981;43.292;-2.888;2023-02-28T10:09:10;4.22;;;2.60;;
28848;SDS011;15981;43.292;-2.888;2023-02-28T10:11:38;9.05;;;3.35;;
28848;SDS011;15981;43.292;-2.888;2023-02-28T10:14:12;6.70;;;2.92;;
28848;SDS011;15981;43.292;-2.888;2023-02-28T10:16:42;5.28;;;3.10;;
28848;SDS011;15981;43.292;-2.888;2023-02-28T10:19:13;7.45;;;3.20;;
28848;SDS011;15981;43.292;-2.888;2023-02-28T10:21:47;4.47;;;3.05;;
28848;SDS011;15981;43.292;-2.888;2023-02-28T10:24:35;3.70;;;2.60;;
28848;SDS011;15981;43.292;-2.888;2023-02-28T10:27:12;4.05;;;2.75;;
28848;SDS011;15981;43.292;-2.888;2023-02-28T10:29:40;6.28;;;3.45;;
28848;SDS011;15981;43.292;-2.888;2023-02-28T10:32:08;5.50;;;3.20;;
28848;SDS011;15981;43.292;-2.888;2023-02-28T10:34:36;9.85;;;3.65;;
28848;SDS011;15981;43.292;-2.888;2023-02-28T10:37:02;8.25;;;4.00;;
28848;SDS011;15981;43.292;-2.888;2023-02-28T10:39:36;9.20;;;3.78;;
28848;SDS011;15981;43.292;-2.888;2023-02-28T10:42:03;8.68;;;3.55;;
28848;SDS011;15981;43.292;-2.888;2023-02-28T10:44:29;7.72;;;3.17;;
28848;SDS011;15981;43.292;-2.888;2023-02-28T10:46:55;5.25;;;3.03;;
28848;SDS011;15981;43.292;-2.888;2023-02-28T10:49:24;6.82;;;3.13;;
28848;SDS011;15981;43.292;-2.888;2023-02-28T10:51:54;4.60;;;3.03;;
28848;SDS011;15981;43.292;-2.888;2023-02-28T10:57:04;6.55;;;2.75;;
28848;SDS011;15981;43.292;-2.888;2023-02-28T10:59:30;3.42;;;2.38;;
28848;SDS011;15981;43.292;-2.888;2023-02-28T11:01:56;5.22;;;2.55;;
28848;SDS011;15981;43.292;-2.888;2023-02-28T11:06:56;6.15;;;2.58;;
28848;SDS011;15981;43.292;-2.888;2023-02-28T11:09:23;5.80;;;2.10;;
28848;SDS011;15981;43.292;-2.888;2023-02-28T11:11:50;5.80;;;2.17;;
28848;SDS011;15981;43.292;-2.888;2023-02-28T11:14:25;3.03;;;2.13;;
28848;SDS011;15981;43.292;-2.888;2023-02-28T11:16:51;5.30;;;2.40;;
28848;SDS011;15981;43.292;-2.888;2023-02-28T11:19:25;5.13;;;2.75;;
28848;SDS011;15981;43.292;-2.888;2023-02-28T11:21:59;3.63;;;1.98;;
28848;SDS011;15981;43.292;-2.888;2023-02-28T11:24:44;6.25;;;2.72;;
28848;SDS011;15981;43.292;-2.888;2023-02-28T11:27:40;5.35;;;2.10;;
28848;SDS011;15981;43.292;-2.888;2023-02-28T11:32:51;3.03;;;1.77;;
28848;SDS011;15981;43.292;-2.888;2023-02-28T11:35:20;3.25;;;2.13;;
28848;SDS011;15981;43.292;-2.888;2023-02-28T11:37:47;5.00;;;2.00;;
28848;SDS011;15981;43.292;-2.888;2023-02-28T11:41:18;2.80;;;2.10;;
28848;SDS011;15981;43.292;-2.888;2023-02-28T11:43:12;2.85;;;2.17;;
28848;SDS011;15981;43.292;-2.888;2023-02-28T11:45:44;2.03;;;1.40;;
28848;SDS011;15981;43.292;-2.888;2023-02-28T11:48:27;2.00;;;1.70;;
28848;SDS011;15981;43.292;-2.888;2023-02-28T11:56:23;2.88;;;2.13;;
28848;SDS011;15981;43.292;-2.888;2023-02-28T12:01:28;3.03;;;1.83;;
28848;SDS011;15981;43.292;-2.888;2023-02-28T12:04:08;3.20;;;1.70;;
28848;SDS011;15981;43.292;-2.888;2023-02-28T12:14:49;2.75;;;1.83;;
28848;SDS011;15981;43.292;-2.888;2023-02-28T12:17:28;2.05;;;1.67;;
28848;SDS011;15981;43.292;-2.888;2023-02-28T12:20:10;3.20;;;2.03;;
28848;SDS011;15981;43.292;-2.888;2023-02-28T12:27:46;2.95;;;1.80;;
28848;SDS011;15981;43.292;-2.888;2023-02-28T12:30:13;3.47;;;2.00;;
28848;SDS011;15981;43.292;-2.888;2023-02-28T12:32:43;3.17;;;1.98;;
28848;SDS011;15981;43.292;-2.888;2023-02-28T12:37:36;1.83;;;1.70;;
28848;SDS011;15981;43.292;-2.888;2023-02-28T12:40:28;5.50;;;1.80;;
28848;SDS011;15981;43.292;-2.888;2023-02-28T12:42:53;2.55;;;1.90;;
28848;SDS011;15981;43.292;-2.888;2023-02-28T12:47:48;2.40;;;1.75;;
28848;SDS011;15981;43.292;-2.888;2023-02-28T12:50:14;1.90;;;1.70;;
28848;SDS011;15981;43.292;-2.888;2023-02-28T12:52:51;2.97;;;1.90;;
28848;SDS011;15981;43.292;-2.888;2023-02-28T13:00:36;3.60;;;1.55;;
28848;SDS011;15981;43.292;-2.888;2023-02-28T13:11:02;6.95;;;3.00;;
28848;SDS011;15981;43.292;-2.888;2023-02-28T13:13:28;5.03;;;2.50;;
28848;SDS011;15981;43.292;-2.888;2023-02-28T13:16:05;3.30;;;2.20;;
28848;SDS011;15981;43.292;-2.888;2023-02-28T13:18:43;3.25;;;2.17;;
28848;SDS011;15981;43.292;-2.888;2023-02-28T13:21:22;4.18;;;2.60;;
28848;SDS011;15981;43.292;-2.888;2023-02-28T13:26:21;5.55;;;2.50;;
28848;SDS011;15981;43.292;-2.888;2023-02-28T13:29:00;13.63;;;4.72;;
28848;SDS011;15981;43.292;-2.888;2023-02-28T13:31:26;18.02;;;5.88;;
28848;SDS011;15981;43.292;-2.888;2023-02-28T13:44:00;12.02;;;5.25;;
28848;SDS011;15981;43.292;-2.888;2023-02-28T13:46:29;18.10;;;5.60;;
28848;SDS011;15981;43.292;-2.888;2023-02-28T13:49:18;15.65;;;5.30;;
28848;SDS011;15981;43.292;-2.888;2023-02-28T13:51:47;13.38;;;5.80;;
28848;SDS011;15981;43.292;-2.888;2023-02-28T13:54:19;10.70;;;4.70;;
28848;SDS011;15981;43.292;-2.888;2023-02-28T13:56:50;14.02;;;5.03;;
28848;SDS011;15981;43.292;-2.888;2023-02-28T14:04:48;14.45;;;5.32;;
28848;SDS011;15981;43.292;-2.888;2023-02-28T14:07:19;10.00;;;3.97;;
28848;SDS011;15981;43.292;-2.888;2023-02-28T14:09:47;14.75;;;5.28;;
28848;SDS011;15981;43.292;-2.888;2023-02-28T14:14:59;11.25;;;4.53;;
28848;SDS011;15981;43.292;-2.888;2023-02-28T14:17:25;11.32;;;4.28;;
28848;SDS011;15981;43.292;-2.888;2023-02-28T14:19:51;10.48;;;3.88;;
28848;SDS011;15981;43.292;-2.888;2023-02-28T14:37:55;11.68;;;3.70;;
28848;SDS011;15981;43.292;-2.888;2023-02-28T14:40:29;7.00;;;3.45;;
28848;SDS011;15981;43.292;-2.888;2023-02-28T14:43:03;10.02;;;4.28;;
28848;SDS011;15981;43.292;-2.888;2023-02-28T14:45:30;9.98;;;4.00;;
28848;SDS011;15981;43.292;-2.888;2023-02-28T14:47:56;6.93;;;3.38;;
28848;SDS011;15981;43.292;-2.888;2023-02-28T14:50:23;12.00;;;3.80;;
28848;SDS011;15981;43.292;-2.888;2023-02-28T14:52:53;9.43;;;3.58;;
28848;SDS011;15981;43.292;-2.888;2023-02-28T14:55:19;7.07;;;3.70;;
28848;SDS011;15981;43.292;-2.888;2023-02-28T14:57:55;9.00;;;3.50;;
28848;SDS011;15981;43.292;-2.888;2023-02-28T15:02:47;8.35;;;3.55;;
28848;SDS011;15981;43.292;-2.888;2023-02-28T15:07:38;5.57;;;2.70;;
28848;SDS011;15981;43.292;-2.888;2023-02-28T15:12:34;5.10;;;2.58;;
28848;SDS011;15981;43.292;-2.888;2023-02-28T15:15:00;5.10;;;2.60;;
28848;SDS011;15981;43.292;-2.888;2023-02-28T15:17:26;7.30;;;3.05;;
28848;SDS011;15981;43.292;-2.888;2023-02-28T15:19:52;6.10;;;3.45;;
28848;SDS011;15981;43.292;-2.888;2023-02-28T15:22:20;5.45;;;2.50;;
28848;SDS011;15981;43.292;-2.888;2023-02-28T15:24:50;5.95;;;2.50;;
28848;SDS011;15981;43.292;-2.888;2023-02-28T15:29:47;6.07;;;2.72;;
28848;SDS011;15981;43.292;-2.888;2023-02-28T15:32:28;5.60;;;2.58;;
28848;SDS011;15981;43.292;-2.888;2023-02-28T15:34:54;4.93;;;2.67;;
28848;SDS011;15981;43.292;-2.888;2023-02-28T15:39:57;4.85;;;2.28;;
28848;SDS011;15981;43.292;-2.888;2023-02-28T15:42:27;4.18;;;2.25;;
28848;SDS011;15981;43.292;-2.888;2023-02-28T15:44:53;4.18;;;2.17;;
28848;SDS011;15981;43.292;-2.888;2023-02-28T15:47:19;4.95;;;2.08;;
28848;SDS011;15981;43.292;-2.888;2023-02-28T15:52:15;4.32;;;2.03;;
28848;SDS011;15981;43.292;-2.888;2023-02-28T15:54:42;6.25;;;2.30;;
28848;SDS011;15981;43.292;-2.888;2023-02-28T15:57:17;5.03;;;2.38;;
28848;SDS011;15981;43.292;-2.888;2023-02-28T16:00:06;6.30;;;2.50;;
28848;SDS011;15981;43.292;-2.888;2023-02-28T16:02:35;2.72;;;1.90;;
28848;SDS011;15981;43.292;-2.888;2023-02-28T16:05:12;4.38;;;2.33;;
28848;SDS011;15981;43.292;-2.888;2023-02-28T16:07:42;3.28;;;1.80;;
28848;SDS011;15981;43.292;-2.888;2023-02-28T16:10:09;3.30;;;1.50;;
28848;SDS011;15981;43.292;-2.888;2023-02-28T16:12:37;4.50;;;2.38;;
28848;SDS011;15981;43.292;-2.888;2023-02-28T16:15:06;4.50;;;2.20;;
28848;SDS011;15981;43.292;-2.888;2023-02-28T16:17:34;1.77;;;1.60;;
28848;SDS011;15981;43.292;-2.888;2023-02-28T16:20:00;3.58;;;2.05;;
28848;SDS011;15981;43.292;-2.888;2023-02-28T16:22:25;4.45;;;2.05;;
28848;SDS011;15981;43.292;-2.888;2023-02-28T16:24:51;4.50;;;2.00;;
28848;SDS011;15981;43.292;-2.888;2023-02-28T16:27:30;2.55;;;1.95;;
28848;SDS011;15981;43.292;-2.888;2023-02-28T16:29:56;2.92;;;2.00;;
28848;SDS011;15981;43.292;-2.888;2023-02-28T16:32:22;3.92;;;1.80;;
28848;SDS011;15981;43.292;-2.888;2023-02-28T16:34:48;3.22;;;2.00;;
28848;SDS011;15981;43.292;-2.888;2023-02-28T16:37:14;2.53;;;1.70;;
28848;SDS011;15981;43.292;-2.888;2023-02-28T16:39:41;3.42;;;1.75;;
28848;SDS011;15981;43.292;-2.888;2023-02-28T16:42:09;3.60;;;1.70;;
28848;SDS011;15981;43.292;-2.888;2023-02-28T16:44:36;4.78;;;1.83;;
28848;SDS011;15981;43.292;-2.888;2023-02-28T16:47:02;3.10;;;1.60;;
28848;SDS011;15981;43.292;-2.888;2023-02-28T16:49:28;3.20;;;1.75;;
28848;SDS011;15981;43.292;-2.888;2023-02-28T16:51:54;2.83;;;1.63;;
28848;SDS011;15981;43.292;-2.888;2023-02-28T16:54:20;4.85;;;2.13;;
28848;SDS011;15981;43.292;-2.888;2023-02-28T16:56:46;2.90;;;1.50;;
28848;SDS011;15981;43.292;-2.888;2023-02-28T16:59:13;3.72;;;1.73;;
28848;SDS011;15981;43.292;-2.888;2023-02-28T17:01:40;3.00;;;1.67;;